createdAt,value
2022-09-26T00:01:16.164Z,100978.50
2022-09-26T00:03:44.751Z,100979.44
2022-09-26T00:06:12.751Z,100976.84
2022-09-26T00:08:40.185Z,100977.03
2022-09-26T00:11:08.745Z,100976.94
2022-09-26T00:13:37.639Z,100973.78
2022-09-26T00:16:04.409Z,100980.06
2022-09-26T00:18:30.903Z,100978.28
2022-09-26T00:21:24.587Z,100979.63
2022-09-26T00:23:51.904Z,100966.28
2022-09-26T00:26:20.560Z,100967.44
2022-09-26T00:28:47.782Z,100967.59
2022-09-26T00:31:18.845Z,100962.59
2022-09-26T00:33:45.532Z,100972.06
2022-09-26T00:36:12.024Z,100963.16
2022-09-26T00:38:39.301Z,100954.78
2022-09-26T00:41:08.068Z,100952.50
2022-09-26T00:43:35.948Z,100924.50
2022-09-26T00:46:27.725Z,100903.81
2022-09-26T00:49:28.252Z,100899.88
2022-09-26T00:51:59.733Z,100893.25
2022-09-26T00:54:29.370Z,100888.81
2022-09-26T00:57:00.266Z,100878.91
2022-09-26T00:59:30.749Z,100875.44
2022-09-26T01:01:59.259Z,100872.50
2022-09-26T01:04:28.397Z,100867.34
2022-09-26T01:06:58.145Z,100858.13
2022-09-26T01:09:25.995Z,100857.69
2022-09-26T01:11:53.695Z,100845.97
2022-09-26T01:14:21.653Z,100832.50
2022-09-26T01:16:53.492Z,100834.78
2022-09-26T01:19:26.342Z,100814.41
2022-09-26T01:22:19.156Z,100812.09
2022-09-26T01:25:12.179Z,100800.97
2022-09-26T01:28:06.348Z,100799.22
2022-09-26T01:30:41.800Z,100791.72
2022-09-26T01:33:36.222Z,100779.13
2022-09-26T01:36:27.579Z,100781.38
2022-09-26T01:39:14.222Z,100774.34
2022-09-26T01:42:03.989Z,100764.31
2022-09-26T01:44:48.634Z,100764.31
2022-09-26T01:47:27.617Z,100762.41
2022-09-26T01:50:05.267Z,100763.50
2022-09-26T01:52:46.603Z,100751.63
2022-09-26T01:55:31.086Z,100745.66
2022-09-26T01:58:06.808Z,100741.56
2022-09-26T02:00:35.541Z,100736.75
2022-09-26T02:03:04.954Z,100738.94
2022-09-26T02:06:04.071Z,100738.16
2022-09-26T02:08:51.348Z,100731.13
2022-09-26T02:11:19.909Z,100719.59
2022-09-26T02:13:57.812Z,100716.59
2022-09-26T02:16:41.769Z,100721.81
2022-09-26T02:19:17.233Z,100716.25
2022-09-26T02:21:44.214Z,100711.88
2022-09-26T02:24:10.770Z,100711.03
2022-09-26T02:26:37.488Z,100705.81
2022-09-26T02:29:05.376Z,100700.06
2022-09-26T02:31:36.545Z,100696.41
2022-09-26T02:34:04.134Z,100695.66
2022-09-26T02:36:33.667Z,100687.50
2022-09-26T02:39:01.273Z,100687.81
2022-09-26T02:41:51.771Z,100664.06
2022-09-26T02:44:43.578Z,100663.72
2022-09-26T02:47:22.503Z,100665.44
2022-09-26T02:50:13.610Z,100655.03
2022-09-26T02:52:46.272Z,100649.81
2022-09-26T02:55:12.768Z,100644.66
2022-09-26T02:57:50.110Z,100642.00
2022-09-26T03:00:22.278Z,100642.59
2022-09-26T03:03:04.641Z,100636.56
2022-09-26T03:05:32.637Z,100638.81
2022-09-26T03:08:11.078Z,100626.22
2022-09-26T03:10:38.232Z,100625.38
2022-09-26T03:13:16.157Z,100626.97
2022-09-26T03:15:48.736Z,100620.25
2022-09-26T03:18:21.212Z,100607.91
2022-09-26T03:20:48.768Z,100603.88
2022-09-26T03:23:15.996Z,100606.13
2022-09-26T03:25:42.753Z,100598.59
2022-09-26T03:28:10.547Z,100601.94
2022-09-26T03:30:37.297Z,100603.34
2022-09-26T03:33:03.935Z,100596.25
2022-09-26T03:35:30.366Z,100587.41
2022-09-26T03:37:56.819Z,100579.91
2022-09-26T03:40:23.359Z,100573.13
2022-09-26T03:42:50.258Z,100562.13
2022-09-26T03:45:17.386Z,100564.03
2022-09-26T03:47:43.878Z,100555.47
2022-09-26T03:50:10.536Z,100551.00
2022-09-26T03:52:36.978Z,100539.44
2022-09-26T03:55:04.935Z,100545.81
2022-09-26T03:57:31.422Z,100530.84
2022-09-26T03:59:57.933Z,100528.19
2022-09-26T04:02:24.498Z,100526.41
2022-09-26T04:04:51.105Z,100512.28
2022-09-26T04:07:17.587Z,100501.47
2022-09-26T04:09:44.221Z,100503.63
2022-09-26T04:12:10.758Z,100499.59
2022-09-26T04:14:37.338Z,100496.66
2022-09-26T04:17:03.947Z,100484.72
2022-09-26T04:19:30.479Z,100479.53
2022-09-26T04:21:57.009Z,100475.72
2022-09-26T04:24:23.487Z,100464.50
2022-09-26T04:26:49.966Z,100459.03
2022-09-26T04:29:16.972Z,100451.91
2022-09-26T04:31:43.864Z,100443.34
2022-09-26T04:34:11.605Z,100425.50
2022-09-26T04:36:38.795Z,100433.31
2022-09-26T04:39:09.881Z,100423.31
2022-09-26T04:41:37.644Z,100413.94
2022-09-26T04:44:04.239Z,100414.00
2022-09-26T04:46:31.512Z,100411.00
2022-09-26T04:49:00.426Z,100409.88
2022-09-26T04:51:28.378Z,100401.72
2022-09-26T04:53:55.210Z,100399.44
2022-09-26T04:56:23.435Z,100399.34
2022-09-26T04:58:50.135Z,100393.44
2022-09-26T05:01:19.135Z,100388.94
2022-09-26T05:03:46.302Z,100388.25
2022-09-26T05:06:14.701Z,100389.78
2022-09-26T05:08:44.714Z,100381.88
2022-09-26T05:11:11.199Z,100379.66
2022-09-26T05:13:38.910Z,100378.50
2022-09-26T05:16:08.850Z,100361.31
2022-09-26T05:18:37.019Z,100367.72
2022-09-26T05:21:06.565Z,100357.63
2022-09-26T05:23:52.451Z,100352.09
2022-09-26T05:26:29.437Z,100351.00
2022-09-26T05:29:06.821Z,100356.03
2022-09-26T05:31:37.480Z,100343.03
2022-09-26T05:34:13.046Z,100335.63
2022-09-26T05:36:42.743Z,100340.06
2022-09-26T05:39:27.853Z,100335.59
2022-09-26T05:41:54.917Z,100332.22
2022-09-26T05:44:21.407Z,100327.28
2022-09-26T05:46:48.576Z,100322.50
2022-09-26T05:49:15.275Z,100316.13
2022-09-26T05:51:41.879Z,100319.84
2022-09-26T05:54:08.340Z,100315.31
2022-09-26T05:56:37.416Z,100314.00
2022-09-26T05:59:04.575Z,100309.81
2022-09-26T06:01:32.830Z,100303.84
2022-09-26T06:03:59.927Z,100298.31
2022-09-26T06:06:26.551Z,100299.50
2022-09-26T06:08:53.000Z,100293.44
2022-09-26T06:11:28.029Z,100285.94
2022-09-26T06:13:55.874Z,100277.03
2022-09-26T06:16:22.583Z,100266.34
2022-09-26T06:18:51.058Z,100261.53
2022-09-26T06:21:19.395Z,100251.78
2022-09-26T06:23:46.189Z,100250.03
2022-09-26T06:26:28.937Z,100246.31
2022-09-26T06:29:01.001Z,100238.50
2022-09-26T06:31:28.621Z,100232.19
2022-09-26T06:33:55.745Z,100214.69
2022-09-26T06:36:24.145Z,100214.75
2022-09-26T06:38:51.635Z,100207.38
2022-09-26T06:41:18.288Z,100212.59
2022-09-26T06:43:45.443Z,100195.47
2022-09-26T06:46:13.310Z,100204.03
2022-09-26T06:48:39.822Z,100197.75
2022-09-26T06:51:07.161Z,100181.06
2022-09-26T06:53:35.109Z,100189.25
2022-09-26T06:56:02.102Z,100179.63
2022-09-26T06:58:28.709Z,100165.13
2022-09-26T07:00:55.721Z,100165.13
2022-09-26T07:03:24.601Z,100145.09
2022-09-26T07:05:51.758Z,100146.59
2022-09-26T07:08:18.257Z,100146.97
2022-09-26T07:10:44.809Z,100146.22
2022-09-26T07:13:11.318Z,100148.19
2022-09-26T07:15:37.995Z,100133.66
2022-09-26T07:18:06.446Z,100137.50
2022-09-26T07:20:36.960Z,100134.59
2022-09-26T07:23:05.340Z,100130.19
2022-09-26T07:25:33.287Z,100126.88
2022-09-26T07:28:00.613Z,100121.72
2022-09-26T07:30:28.436Z,100122.91
2022-09-26T07:33:03.839Z,100124.41
2022-09-26T07:35:32.862Z,100128.56
2022-09-26T07:37:59.687Z,100125.91
2022-09-26T07:40:27.685Z,100124.38
2022-09-26T07:43:15.665Z,100126.28
2022-09-26T07:46:03.689Z,100122.91
2022-09-26T07:48:48.502Z,100120.72
2022-09-26T07:51:16.247Z,100108.09
2022-09-26T07:53:42.728Z,100114.44
2022-09-26T07:56:12.733Z,100117.06
2022-09-26T07:58:44.591Z,100108.19
2022-09-26T08:01:13.153Z,100105.53
2022-09-26T08:03:49.162Z,100108.19
2022-09-26T08:06:20.260Z,100097.75
2022-09-26T08:08:48.218Z,100094.03
2022-09-26T08:11:19.539Z,100087.00
2022-09-26T08:13:47.291Z,100084.41
2022-09-26T08:16:23.472Z,100077.41
2022-09-26T08:18:51.440Z,100069.59
2022-09-26T08:21:18.365Z,100068.50
2022-09-26T08:23:46.816Z,100070.38
2022-09-26T08:26:14.175Z,100059.56
2022-09-26T08:28:41.078Z,100056.59
2022-09-26T08:31:08.251Z,100061.09
2022-09-26T08:33:36.223Z,100058.50
2022-09-26T08:36:11.251Z,100051.44
2022-09-26T08:38:38.291Z,100049.19
2022-09-26T08:41:32.740Z,100057.75
2022-09-26T08:44:22.920Z,100049.19
2022-09-26T08:47:05.914Z,100042.81
2022-09-26T08:49:48.310Z,100048.44
2022-09-26T08:52:29.741Z,100031.66
2022-09-26T08:55:32.891Z,100026.44
2022-09-26T08:58:04.267Z,100033.16
2022-09-26T09:00:38.432Z,100019.75
2022-09-26T09:03:10.949Z,100022.81
2022-09-26T09:05:42.515Z,100014.63
2022-09-26T09:08:25.817Z,100013.16
2022-09-26T09:11:02.499Z,100018.38
2022-09-26T09:13:53.907Z,100013.13
2022-09-26T09:16:29.597Z,100013.13
2022-09-26T09:19:27.762Z,100010.13
2022-09-26T09:22:06.109Z,100000.06
2022-09-26T09:25:05.972Z,99994.53
2022-09-26T09:28:08.146Z,99988.22
2022-09-26T09:30:45.423Z,99987.06
2022-09-26T09:33:17.708Z,99987.06
2022-09-26T09:35:49.482Z,99977.03
2022-09-26T09:38:19.789Z,99975.16
2022-09-26T09:41:05.097Z,99967.00
2022-09-26T09:43:58.095Z,99969.63
2022-09-26T09:46:36.185Z,99968.88
2022-09-26T09:49:19.014Z,99954.72
2022-09-26T09:52:03.784Z,99950.63
2022-09-26T09:54:51.610Z,99944.25
2022-09-26T09:58:15.526Z,99951.38
2022-09-26T10:00:53.879Z,99948.38
2022-09-26T10:03:45.933Z,99946.13
2022-09-26T10:06:46.217Z,99940.94
2022-09-26T10:09:38.674Z,99945.38
2022-09-26T10:11:59.068Z,99939.06
2022-09-26T10:14:39.578Z,99931.25
2022-09-26T10:17:09.123Z,99925.28
2022-09-26T10:19:37.667Z,99930.47
2022-09-26T10:22:09.544Z,99923.06
2022-09-26T10:24:41.603Z,99925.25
2022-09-26T10:27:23.716Z,99920.44
2022-09-26T10:29:58.948Z,99924.56
2022-09-26T10:32:26.760Z,99912.97
2022-09-26T10:35:07.881Z,99915.97
2022-09-26T10:37:37.119Z,99911.91
2022-09-26T10:40:40.864Z,99915.59
2022-09-26T10:43:28.838Z,99908.91
2022-09-26T10:46:02.470Z,99899.19
2022-09-26T10:48:43.379Z,99913.00
2022-09-26T10:51:11.159Z,99906.25
2022-09-26T10:53:40.329Z,99903.31
2022-09-26T10:56:11.944Z,99900.72
2022-09-26T10:58:44.938Z,99893.63
2022-09-26T11:01:27.789Z,99893.25
2022-09-26T11:03:57.504Z,99896.22
2022-09-26T11:06:29.705Z,99898.47
2022-09-26T11:09:00.500Z,99890.66
2022-09-26T11:11:27.986Z,99892.50
2022-09-26T11:14:03.883Z,99891.03
2022-09-26T11:16:39.542Z,99879.06
2022-09-26T11:19:21.958Z,99891.78
2022-09-26T11:21:58.531Z,99881.69
2022-09-26T11:24:37.472Z,99877.97
2022-09-26T11:27:19.460Z,99880.59
2022-09-26T11:30:10.905Z,99877.56
2022-09-26T11:32:43.868Z,99870.50
2022-09-26T11:35:16.390Z,99869.00
2022-09-26T11:38:05.656Z,99872.34
2022-09-26T11:40:32.319Z,99866.38
2022-09-26T11:43:25.204Z,99866.41
2022-09-26T11:46:37.031Z,99857.88
2022-09-26T11:49:48.298Z,99861.94
2022-09-26T11:52:49.222Z,99857.84
2022-09-26T11:55:37.229Z,99861.94
2022-09-26T11:58:22.383Z,99853.34
2022-09-26T12:01:11.402Z,99850.78
2022-09-26T12:03:40.762Z,99850.75
2022-09-26T12:06:33.683Z,99854.84
2022-09-26T12:09:22.154Z,99854.50
2022-09-26T12:11:58.096Z,99841.44
2022-09-26T12:15:08.555Z,99839.22
2022-09-26T12:18:13.255Z,99840.34
2022-09-26T12:21:07.515Z,99830.28
2022-09-26T12:23:57.281Z,99834.75
2022-09-26T12:26:39.866Z,99820.19
2022-09-26T12:29:28.621Z,99824.69
2022-09-26T12:32:20.238Z,99818.34
2022-09-26T12:35:19.897Z,99810.13
2022-09-26T12:37:57.494Z,99805.28
2022-09-26T12:40:43.287Z,99799.69
2022-09-26T12:43:21.573Z,99792.63
2022-09-26T12:46:00.362Z,99793.38
2022-09-26T12:49:03.924Z,99791.84
2022-09-26T12:51:49.119Z,99800.81
2022-09-26T12:54:40.517Z,99794.88
2022-09-26T12:57:14.758Z,99789.22
2022-09-26T13:00:10.331Z,99787.75
2022-09-26T13:02:51.165Z,99781.78
2022-09-26T13:05:31.129Z,99784.00
2022-09-26T13:08:15.679Z,99784.44
2022-09-26T13:11:12.939Z,99783.66
2022-09-26T13:13:59.160Z,99767.97
2022-09-26T13:16:44.411Z,99775.09
2022-09-26T13:19:23.847Z,99774.31
2022-09-26T13:21:54.283Z,99769.84
2022-09-26T13:24:35.027Z,99765.75
2022-09-26T13:27:30.008Z,99759.78
2022-09-26T13:30:29.315Z,99748.59
2022-09-26T13:33:20.833Z,99756.03
2022-09-26T13:35:51.365Z,99759.44
2022-09-26T13:38:20.593Z,99756.03
2022-09-26T13:41:15.017Z,99762.03
2022-09-26T13:44:03.638Z,99753.84
2022-09-26T13:46:42.324Z,99749.72
2022-09-26T13:49:30.608Z,99753.44
2022-09-26T13:52:02.926Z,99757.19
2022-09-26T13:54:45.399Z,99749.72
2022-09-26T13:57:36.892Z,99744.88
2022-09-26T14:00:34.964Z,99737.41
2022-09-26T14:03:13.278Z,99738.50
2022-09-26T14:05:48.156Z,99735.91
2022-09-26T14:08:43.002Z,99734.03
2022-09-26T14:11:19.005Z,99735.13
2022-09-26T14:13:47.595Z,99734.00
2022-09-26T14:16:35.687Z,99729.16
2022-09-26T14:19:15.889Z,99728.78
2022-09-26T14:22:25.208Z,99734.00
2022-09-26T14:24:52.566Z,99732.50
2022-09-26T14:27:19.134Z,99730.28
2022-09-26T14:30:18.201Z,99728.75
2022-09-26T14:32:46.904Z,99721.66
2022-09-26T14:35:43.241Z,99714.94
2022-09-26T14:38:16.277Z,99712.69
2022-09-26T14:41:22.453Z,99706.34
2022-09-26T14:43:51.074Z,99702.19
2022-09-26T14:46:24.058Z,99701.06
2022-09-26T14:49:01.751Z,99703.69
2022-09-26T14:51:32.414Z,99693.66
2022-09-26T14:54:07.251Z,99700.31
2022-09-26T14:57:02.551Z,99699.19
2022-09-26T14:59:35.049Z,99691.72
2022-09-26T15:02:14.344Z,99696.22
2022-09-26T15:04:42.689Z,99688.03
2022-09-26T15:07:27.784Z,99682.00
2022-09-26T15:10:09.178Z,99686.47
2022-09-26T15:12:47.792Z,99686.81
2022-09-26T15:15:40.721Z,99685.03
2022-09-26T15:18:25.913Z,99677.13
2022-09-26T15:21:04.026Z,99674.56
2022-09-26T15:23:34.224Z,99676.06
2022-09-26T15:26:06.311Z,99676.06
2022-09-26T15:28:34.921Z,99669.34
2022-09-26T15:31:20.578Z,99668.22
2022-09-26T15:34:04.441Z,99679.41
2022-09-26T15:36:34.720Z,99672.75
2022-09-26T15:39:22.568Z,99669.03
2022-09-26T15:42:07.726Z,99676.13
2022-09-26T15:44:35.420Z,99671.31
2022-09-26T15:47:26.742Z,99670.50
2022-09-26T15:50:22.640Z,99668.97
2022-09-26T15:53:00.224Z,99666.03
2022-09-26T15:55:45.421Z,99654.09
2022-09-26T15:58:17.412Z,99661.19
2022-09-26T16:00:48.344Z,99657.47
2022-09-26T16:03:20.968Z,99667.19
2022-09-26T16:05:48.143Z,99663.06
2022-09-26T16:08:28.282Z,99663.44
2022-09-26T16:11:00.201Z,99666.47
2022-09-26T16:13:33.450Z,99658.25
2022-09-26T16:16:09.147Z,99660.44
2022-09-26T16:18:47.221Z,99661.25
2022-09-26T16:21:17.870Z,99658.19
2022-09-26T16:23:50.417Z,99648.88
2022-09-26T16:26:21.777Z,99646.63
2022-09-26T16:28:52.880Z,99638.78
2022-09-26T16:31:29.144Z,99645.47
2022-09-26T16:33:58.487Z,99638.00
2022-09-26T16:36:29.548Z,99628.31
2022-09-26T16:39:01.921Z,99626.81
2022-09-26T16:44:34.472Z,99613.75
2022-09-26T16:47:05.574Z,99612.59
2022-09-26T16:49:45.990Z,99618.97
2022-09-26T16:52:27.101Z,99632.47
2022-09-26T16:54:59.797Z,99634.31
2022-09-26T16:57:35.315Z,99638.13
2022-09-26T17:00:34.692Z,99638.13
2022-09-26T17:03:02.041Z,99634.34
2022-09-26T17:05:28.875Z,99646.66
2022-09-26T17:07:55.511Z,99647.75
2022-09-26T17:10:24.915Z,99651.19
2022-09-26T17:12:53.041Z,99641.69
2022-09-26T17:15:27.398Z,99655.41
2022-09-26T17:17:54.871Z,99646.47
2022-09-26T17:20:22.243Z,99663.41
2022-09-26T17:22:49.148Z,99658.91
2022-09-26T17:25:16.387Z,99645.91
2022-09-26T17:27:43.464Z,99648.94
2022-09-26T17:30:18.744Z,99640.72
2022-09-26T17:32:49.869Z,99643.41
2022-09-26T17:35:22.712Z,99639.66
2022-09-26T17:37:52.063Z,99637.88
2022-09-26T17:40:24.327Z,99637.88
2022-09-26T17:42:55.555Z,99633.72
2022-09-26T17:45:32.184Z,99633.69
2022-09-26T17:48:04.556Z,99629.25
2022-09-26T17:50:41.615Z,99628.50
2022-09-26T17:55:59.932Z,99636.34
2022-09-26T17:58:27.021Z,99641.16
2022-09-26T18:00:57.733Z,99636.34
2022-09-26T18:03:30.713Z,99639.28
2022-09-26T18:06:01.375Z,99641.19
2022-09-26T18:08:30.973Z,99641.94
2022-09-26T18:11:03.522Z,99638.22
2022-09-26T18:13:35.735Z,99642.69
2022-09-26T18:16:03.301Z,99641.56
2022-09-26T18:18:32.218Z,99639.31
2022-09-26T18:21:04.122Z,99633.03
2022-09-26T18:24:02.298Z,99636.38
2022-09-26T18:26:47.623Z,99641.56
2022-09-26T18:29:20.956Z,99646.06
2022-09-26T18:31:48.613Z,99658.75
2022-09-26T18:34:21.644Z,99661.75
2022-09-26T18:36:50.167Z,99649.06
2022-09-26T18:39:17.097Z,99660.25
2022-09-26T18:41:45.234Z,99655.41
2022-09-26T18:44:16.993Z,99645.34
2022-09-26T18:46:46.823Z,99648.34
2022-09-26T18:49:14.367Z,99645.34
2022-09-26T18:51:41.114Z,99655.41
2022-09-26T18:54:13.828Z,99654.66
2022-09-26T18:56:59.529Z,99653.16
2022-09-26T18:59:29.061Z,99652.06
2022-09-26T19:01:56.370Z,99657.63
2022-09-26T19:04:23.475Z,99650.19
2022-09-26T19:07:01.373Z,99659.53
2022-09-26T19:09:35.536Z,99657.66
2022-09-26T19:12:03.209Z,99659.88
2022-09-26T19:14:30.775Z,99657.25
2022-09-26T19:16:58.142Z,99664.31
2022-09-26T19:19:25.558Z,99665.06
2022-09-26T19:21:56.686Z,99666.94
2022-09-26T19:24:31.678Z,99669.53
2022-09-26T19:27:06.525Z,99679.94
2022-09-26T19:30:16.862Z,99693.31
2022-09-26T19:32:53.041Z,99688.47
2022-09-26T19:35:34.195Z,99696.31
2022-09-26T19:38:03.131Z,99697.03
2022-09-26T19:40:29.677Z,99696.31
2022-09-26T19:42:57.352Z,99701.53
2022-09-26T19:45:24.909Z,99710.06
2022-09-26T19:47:54.484Z,99704.47
2022-09-26T19:50:25.906Z,99710.44
2022-09-26T19:52:54.561Z,99717.09
2022-09-26T19:55:26.870Z,99721.13
2022-09-26T19:57:54.889Z,99723.34
2022-09-26T20:00:21.475Z,99721.16
2022-09-26T20:02:51.664Z,99728.91
2022-09-26T20:05:21.263Z,99728.94
2022-09-26T20:07:47.823Z,99720.03
2022-09-26T20:10:19.773Z,99718.47
2022-09-26T20:12:48.409Z,99731.56
2022-09-26T20:15:16.711Z,99734.94
2022-09-26T20:17:44.762Z,99730.75
2022-09-26T20:20:17.415Z,99743.72
2022-09-26T20:22:44.824Z,99743.00
2022-09-26T20:25:25.844Z,99740.47
2022-09-26T20:27:53.428Z,99733.81
2022-09-26T20:30:39.096Z,99735.94
2022-09-26T20:33:06.366Z,99737.72
2022-09-26T20:35:40.024Z,99734.03
2022-09-26T20:38:11.807Z,99725.19
2022-09-26T20:40:40.646Z,99717.31
2022-09-26T20:43:14.439Z,99728.84
2022-09-26T20:45:44.189Z,99724.41
2022-09-26T20:48:19.563Z,99720.31
2022-09-26T20:50:48.281Z,99723.94
2022-09-26T20:53:20.162Z,99726.56
2022-09-26T20:55:47.658Z,99721.06
2022-09-26T20:58:14.437Z,99726.56
2022-09-26T21:00:42.293Z,99723.88
2022-09-26T21:03:11.516Z,99729.00
2022-09-26T21:05:38.244Z,99720.50
2022-09-26T21:08:14.515Z,99721.22
2022-09-26T21:10:41.155Z,99715.22
2022-09-26T21:13:08.898Z,99721.31
2022-09-26T21:15:35.798Z,99719.44
2022-09-26T21:18:02.795Z,99724.53
2022-09-26T21:20:32.289Z,99719.78
2022-09-26T21:23:01.405Z,99721.25
2022-09-26T21:25:30.768Z,99719.53
2022-09-26T21:28:06.513Z,99722.75
2022-09-26T21:30:33.616Z,99727.72
2022-09-26T21:33:00.699Z,99725.13
2022-09-26T21:35:32.171Z,99722.53
2022-09-26T21:38:01.116Z,99721.44
2022-09-26T21:40:31.299Z,99720.72
2022-09-26T21:43:03.717Z,99722.09
2022-09-26T21:45:30.358Z,99717.34
2022-09-26T21:47:57.433Z,99725.50
2022-09-26T21:50:26.905Z,99719.16
2022-09-26T21:52:59.406Z,99717.31
2022-09-26T21:55:38.812Z,99721.78
2022-09-26T21:58:09.581Z,99715.44
2022-09-26T22:00:36.062Z,99711.00
2022-09-26T22:03:02.756Z,99717.69
2022-09-26T22:05:29.262Z,99714.28
2022-09-26T22:07:56.749Z,99721.25
2022-09-26T22:10:23.199Z,99709.28
2022-09-26T22:12:52.228Z,99714.22
2022-09-26T22:15:19.402Z,99719.78
2022-09-26T22:17:45.942Z,99713.88
2022-09-26T22:20:12.963Z,99702.69
2022-09-26T22:22:39.514Z,99696.75
2022-09-26T22:25:06.906Z,99703.72
2022-09-26T22:27:34.872Z,99705.28
2022-09-26T22:30:01.413Z,99701.56
2022-09-26T22:32:28.002Z,99697.53
2022-09-26T22:34:54.527Z,99699.72
2022-09-26T22:37:21.043Z,99702.97
2022-09-26T22:39:48.092Z,99694.44
2022-09-26T22:42:14.893Z,99691.34
2022-09-26T22:44:41.355Z,99699.13
2022-09-26T22:47:07.980Z,99693.66
2022-09-26T22:49:34.536Z,99698.41
2022-09-26T22:52:01.187Z,99701.41
2022-09-26T22:54:27.736Z,99698.75
2022-09-26T22:56:54.439Z,99701.69
2022-09-26T22:59:21.061Z,99700.91
2022-09-26T23:01:48.143Z,99709.81
2022-09-26T23:04:14.663Z,99722.41
2022-09-26T23:06:41.128Z,99710.63
2022-09-26T23:09:07.789Z,99720.94
2022-09-26T23:11:34.363Z,99706.84
2022-09-26T23:14:00.897Z,99709.16
2022-09-26T23:16:27.874Z,99702.72
2022-09-26T23:18:55.184Z,99705.63
2022-09-26T23:21:23.836Z,99704.56
2022-09-26T23:23:52.779Z,99708.97
2022-09-26T23:26:23.721Z,99704.13
2022-09-26T23:28:51.357Z,99715.94
2022-09-26T23:31:18.655Z,99723.13
2022-09-26T23:33:45.270Z,99710.19
2022-09-26T23:36:12.783Z,99715.75
2022-09-26T23:38:40.247Z,99723.47
2022-09-26T23:41:08.219Z,99725.66
2022-09-26T23:43:34.982Z,99723.41
2022-09-26T23:46:01.762Z,99725.72
2022-09-26T23:48:28.601Z,99715.75
2022-09-26T23:50:55.290Z,99720.16
2022-09-26T23:53:22.257Z,99717.97
2022-09-26T23:55:48.884Z,99725.38
2022-09-26T23:58:15.761Z,99732.66
